createdAt,value
2019-04-22T00:00:53.567Z,16.30
2019-04-22T00:03:27.401Z,13.67
2019-04-22T00:06:16.502Z,18.90
2019-04-22T00:08:52.214Z,15.93
2019-04-22T00:11:27.194Z,17.90
2019-04-22T00:13:51.986Z,15.50
2019-04-22T00:16:26.419Z,18.87
2019-04-22T00:19:11.348Z,17.00
2019-04-22T00:21:32.904Z,18.73
2019-04-22T00:23:59.861Z,17.97
2019-04-22T00:26:37.546Z,15.43
2019-04-22T00:29:12.153Z,16.60
2019-04-22T00:32:00.839Z,17.83
2019-04-22T00:34:34.138Z,13.80
2019-04-22T00:37:10.938Z,17.33
2019-04-22T00:39:40.924Z,18.63
2019-04-22T00:42:17.899Z,17.53
2019-04-22T00:44:45.629Z,16.67
2019-04-22T00:47:23.443Z,17.47
2019-04-22T00:52:16.649Z,18.40
2019-04-22T00:54:55.669Z,17.63
2019-04-22T00:57:26.883Z,16.77
2019-04-22T00:59:58.591Z,18.20
2019-04-22T01:02:27.965Z,16.47
2019-04-22T01:05:00.912Z,17.83
2019-04-22T01:07:30.421Z,18.80
2019-04-22T01:12:37.442Z,19.37
2019-04-22T01:15:01.057Z,17.43
2019-04-22T01:17:34.474Z,14.77
2019-04-22T01:20:24.473Z,17.70
2019-04-22T01:22:34.309Z,17.20
2019-04-22T01:25:08.770Z,18.87
2019-04-22T01:27:34.460Z,14.77
2019-04-22T01:30:03.688Z,18.93
2019-04-22T01:32:31.130Z,17.23
2019-04-22T01:35:08.369Z,16.83
2019-04-22T01:37:45.756Z,17.87
2019-04-22T01:40:29.379Z,17.57
2019-04-22T01:45:29.038Z,18.13
2019-04-22T01:47:55.385Z,18.60
2019-04-22T01:50:33.764Z,18.23
2019-04-22T01:53:06.774Z,15.03
2019-04-22T01:55:41.717Z,18.53
2019-04-22T01:57:59.509Z,16.27
2019-04-22T02:00:39.588Z,20.70
2019-04-22T02:03:12.266Z,19.07
2019-04-22T02:05:39.426Z,18.07
2019-04-22T02:08:19.847Z,20.87
2019-04-22T02:10:49.284Z,16.70
2019-04-22T02:13:15.434Z,19.73
2019-04-22T02:15:52.447Z,20.83
2019-04-22T02:18:23.411Z,20.40
2019-04-22T02:20:48.496Z,18.43
2019-04-22T02:23:45.839Z,21.00
2019-04-22T02:26:01.252Z,21.03
2019-04-22T02:28:37.608Z,17.83
2019-04-22T02:34:02.851Z,21.33
2019-04-22T02:36:30.525Z,21.67
2019-04-22T02:43:59.531Z,21.77
2019-04-22T02:51:24.341Z,20.37
2019-04-22T02:56:31.557Z,23.03
2019-04-22T03:01:36.911Z,22.33
2019-04-22T03:04:06.823Z,22.07
2019-04-22T03:09:13.908Z,22.70
2019-04-22T03:11:56.642Z,23.30
2019-04-22T03:16:40.645Z,22.43
2019-04-22T03:21:42.272Z,22.23
2019-04-22T03:24:23.700Z,23.53
2019-04-22T03:29:13.337Z,21.33
2019-04-22T03:37:21.361Z,23.37
2019-04-22T03:43:10.598Z,22.47
2019-04-22T03:52:14.774Z,21.57
2019-04-22T03:54:45.771Z,18.40
2019-04-22T04:04:43.312Z,21.83
2019-04-22T04:09:49.318Z,23.50
2019-04-22T04:12:23.682Z,24.47
2019-04-22T04:15:12.327Z,24.97
2019-04-22T04:20:06.121Z,25.37
2019-04-22T04:22:46.064Z,24.80
2019-04-22T04:37:46.947Z,24.77
2019-04-22T04:40:20.658Z,24.00
2019-04-22T04:42:54.203Z,25.17
2019-04-22T04:47:49.270Z,25.60
2019-04-22T04:50:12.155Z,24.97
2019-04-22T04:55:23.994Z,26.13
2019-04-22T05:03:00.636Z,24.13
2019-04-22T05:05:45.808Z,22.97
2019-04-22T05:08:00.515Z,25.60
2019-04-22T05:10:44.864Z,23.73
2019-04-22T05:15:37.391Z,22.57
2019-04-22T05:18:07.219Z,24.57
2019-04-22T05:20:57.318Z,22.20
2019-04-22T05:23:07.079Z,21.50
2019-04-22T05:25:32.342Z,17.70
2019-04-22T05:28:11.862Z,26.57
2019-04-22T05:30:57.188Z,21.60
2019-04-22T05:33:07.320Z,19.23
2019-04-22T05:36:02.680Z,18.57
2019-04-22T05:38:17.718Z,25.20
2019-04-22T05:40:40.867Z,25.27
2019-04-22T05:43:19.128Z,24.80
2019-04-22T05:45:43.012Z,27.07
2019-04-22T05:48:18.381Z,20.73
2019-04-22T05:50:54.287Z,27.10
2019-04-22T05:53:21.245Z,27.43
2019-04-22T05:55:57.131Z,25.17
2019-04-22T05:58:35.697Z,25.67
2019-04-22T06:01:29.030Z,22.90
2019-04-22T06:03:46.089Z,26.07
2019-04-22T06:06:13.702Z,28.23
2019-04-22T06:08:45.605Z,15.07
2019-04-22T06:11:22.782Z,23.03
2019-04-22T06:13:49.253Z,25.30
2019-04-22T06:16:26.314Z,23.63
2019-04-22T06:19:01.022Z,24.63
2019-04-22T06:21:36.012Z,26.40
2019-04-22T06:24:08.243Z,22.63
2019-04-22T06:26:38.572Z,28.50
2019-04-22T06:29:10.393Z,31.73
2019-04-22T06:31:43.224Z,31.73
2019-04-22T06:34:10.601Z,33.63
2019-04-22T06:36:47.797Z,23.67
2019-04-22T06:39:18.961Z,24.43
2019-04-22T06:42:01.001Z,23.80
2019-04-22T06:44:30.907Z,21.33
2019-04-22T06:46:47.477Z,26.97
2019-04-22T06:49:22.756Z,28.87
2019-04-22T06:51:55.573Z,24.53
2019-04-22T06:54:22.070Z,24.87
2019-04-22T06:56:57.655Z,22.90
2019-04-22T06:59:26.480Z,28.07
2019-04-22T07:04:29.702Z,24.47
2019-04-22T07:07:02.258Z,24.57
2019-04-22T07:15:35.532Z,24.23
2019-04-22T07:17:56.849Z,24.20
2019-04-22T07:20:24.239Z,23.97
2019-04-22T07:23:13.860Z,23.70
2019-04-22T07:28:17.625Z,20.80
2019-04-22T07:30:47.220Z,22.70
2019-04-22T07:33:22.896Z,18.80
2019-04-22T07:38:34.483Z,15.13
2019-04-22T07:40:55.454Z,17.10
2019-04-22T07:45:56.894Z,21.47
2019-04-22T07:48:33.468Z,18.93
2019-04-22T07:51:13.512Z,21.53
2019-04-22T07:53:27.888Z,17.07
2019-04-22T07:56:00.154Z,16.07
2019-04-22T07:58:36.136Z,19.53
2019-04-22T08:01:18.467Z,20.07
2019-04-22T08:03:56.534Z,17.43
2019-04-22T08:08:45.115Z,18.77
2019-04-22T08:11:30.633Z,17.07
2019-04-22T08:14:07.646Z,16.80
2019-04-22T08:16:38.166Z,18.97
2019-04-22T08:19:10.451Z,18.27
2019-04-22T08:21:38.470Z,17.07
2019-04-22T08:24:16.522Z,16.40
2019-04-22T08:29:17.493Z,16.20
2019-04-22T08:31:49.141Z,14.73
2019-04-22T08:34:29.842Z,15.80
2019-04-22T08:37:22.767Z,16.40
2019-04-22T08:39:19.906Z,16.93
2019-04-22T08:41:43.805Z,16.97
2019-04-22T08:44:27.856Z,15.97
2019-04-22T08:46:57.918Z,15.13
2019-04-22T08:49:29.968Z,15.93
2019-04-22T08:51:54.971Z,16.37
2019-04-22T08:54:31.156Z,14.93
2019-04-22T08:57:03.401Z,12.90
2019-04-22T08:59:32.625Z,11.80
2019-04-22T09:02:06.399Z,14.27
2019-04-22T09:04:31.161Z,14.23
2019-04-22T09:09:42.914Z,13.57
2019-04-22T09:12:20.108Z,13.83
2019-04-22T09:14:41.686Z,12.83
2019-04-22T09:17:17.635Z,12.37
2019-04-22T09:19:47.420Z,13.43
2019-04-22T09:22:17.143Z,12.43
2019-04-22T09:24:51.768Z,12.93
2019-04-22T09:27:37.080Z,11.10
2019-04-22T09:29:58.422Z,12.50
2019-04-22T09:32:34.438Z,12.57
2019-04-22T09:35:02.720Z,13.63
2019-04-22T09:42:44.031Z,12.03
2019-04-22T09:45:11.614Z,12.80
2019-04-22T09:50:27.501Z,11.70
2019-04-22T09:52:54.755Z,12.23
2019-04-22T09:55:41.478Z,11.77
2019-04-22T09:57:58.973Z,11.87
2019-04-22T10:00:37.391Z,11.90
2019-04-22T10:03:11.850Z,13.30
2019-04-22T10:05:40.713Z,12.70
2019-04-22T10:08:21.010Z,12.70
2019-04-22T10:10:41.495Z,11.73
2019-04-22T10:13:18.697Z,10.20
2019-04-22T10:15:52.214Z,11.70
2019-04-22T10:18:18.828Z,11.93
2019-04-22T10:21:12.330Z,11.20
2019-04-22T10:23:20.212Z,12.70
2019-04-22T10:25:53.703Z,11.50
2019-04-22T10:28:29.610Z,11.80
2019-04-22T10:31:09.955Z,10.73
2019-04-22T10:33:22.442Z,10.53
2019-04-22T10:35:34.416Z,11.83
2019-04-22T10:38:04.043Z,11.73
2019-04-22T10:40:36.441Z,9.47
2019-04-22T10:43:09.393Z,11.57
2019-04-22T10:45:39.803Z,12.00
2019-04-22T10:48:10.445Z,11.37
2019-04-22T10:50:43.074Z,9.17
2019-04-22T10:53:15.415Z,10.50
2019-04-22T10:55:47.756Z,9.83
2019-04-22T10:58:18.586Z,9.80
2019-04-22T11:00:50.258Z,10.00
2019-04-22T11:03:28.038Z,11.23
2019-04-22T11:05:57.102Z,10.90
2019-04-22T11:08:35.015Z,8.70
2019-04-22T11:11:12.286Z,10.87
2019-04-22T11:13:31.625Z,35.20
2019-04-22T11:16:05.580Z,12.00
2019-04-22T11:18:37.858Z,16.20
2019-04-22T11:21:09.503Z,19.33
2019-04-22T11:23:40.683Z,9.60
2019-04-22T11:26:12.032Z,15.83
2019-04-22T11:28:43.307Z,11.73
2019-04-22T11:31:14.689Z,14.30
2019-04-22T11:33:44.911Z,12.87
2019-04-22T11:36:15.800Z,9.37
2019-04-22T11:38:52.325Z,8.37
2019-04-22T11:41:17.416Z,9.23
2019-04-22T11:43:47.414Z,9.63
2019-04-22T11:46:17.676Z,9.30
2019-04-22T11:48:47.809Z,8.50
2019-04-22T11:51:18.233Z,9.80
2019-04-22T11:53:49.104Z,9.40
2019-04-22T11:56:18.958Z,8.10
2019-04-22T11:58:48.973Z,9.13
2019-04-22T12:01:19.254Z,9.13
2019-04-22T12:03:49.588Z,8.63
2019-04-22T12:06:19.931Z,8.83
2019-04-22T12:08:50.071Z,6.73
2019-04-22T12:11:20.685Z,7.60
2019-04-22T12:13:51.826Z,8.70
2019-04-22T12:16:23.200Z,7.17
2019-04-22T12:18:53.494Z,8.27
2019-04-22T12:21:23.493Z,8.23
2019-04-22T12:23:53.224Z,8.00
2019-04-22T12:26:24.984Z,7.10
2019-04-22T12:28:55.091Z,8.27
2019-04-22T12:31:24.822Z,7.60
2019-04-22T12:33:55.179Z,8.30
2019-04-22T12:36:26.479Z,7.63
2019-04-22T12:38:57.671Z,6.70
2019-04-22T12:41:27.834Z,9.00
2019-04-22T12:43:58.885Z,8.23
2019-04-22T12:46:30.132Z,6.93
2019-04-22T12:49:00.324Z,7.53
2019-04-22T12:51:31.352Z,8.77
2019-04-22T12:54:01.412Z,7.40
2019-04-22T12:56:31.128Z,7.23
2019-04-22T12:59:01.380Z,6.70
2019-04-22T13:01:31.365Z,6.43
2019-04-22T13:04:05.750Z,7.40
2019-04-22T13:06:32.890Z,7.43
2019-04-22T13:09:06.241Z,7.83
2019-04-22T13:11:36.968Z,7.23
2019-04-22T13:14:07.490Z,8.13
2019-04-22T13:16:38.555Z,7.53
2019-04-22T13:19:12.863Z,7.27
2019-04-22T13:21:40.662Z,7.43
2019-04-22T13:24:10.978Z,8.27
2019-04-22T13:26:41.148Z,6.97
2019-04-22T13:29:10.880Z,7.97
2019-04-22T13:31:40.610Z,8.77
2019-04-22T13:34:20.048Z,7.53
2019-04-22T13:36:45.361Z,7.27
2019-04-22T13:39:14.720Z,7.77
2019-04-22T13:41:51.734Z,8.10
2019-04-22T13:44:16.729Z,7.53
2019-04-22T13:47:02.096Z,7.63
2019-04-22T13:49:54.151Z,7.87
2019-04-22T13:52:24.531Z,7.30
2019-04-22T13:57:12.388Z,7.07
2019-04-22T13:59:32.269Z,6.50
2019-04-22T14:02:12.957Z,7.57
2019-04-22T14:04:43.355Z,6.90
2019-04-22T14:07:13.435Z,6.63
2019-04-22T14:09:44.526Z,7.67
2019-04-22T14:12:16.299Z,7.17
2019-04-22T14:14:47.195Z,7.17
2019-04-22T14:17:17.035Z,7.70
2019-04-22T14:19:46.964Z,8.03
2019-04-22T14:22:17.815Z,7.17
2019-04-22T14:24:48.849Z,7.43
2019-04-22T14:27:33.450Z,7.57
2019-04-22T14:29:51.477Z,8.93
2019-04-22T14:32:27.345Z,7.37
2019-04-22T14:34:53.256Z,9.70
2019-04-22T14:37:24.299Z,8.30
2019-04-22T14:39:54.169Z,8.90
2019-04-22T14:42:44.026Z,8.17
2019-04-22T14:45:23.249Z,8.13
2019-04-22T14:47:53.987Z,7.33
2019-04-22T14:50:21.820Z,7.90
2019-04-22T14:53:15.848Z,6.93
2019-04-22T14:55:29.646Z,7.13
2019-04-22T14:57:57.015Z,7.90
2019-04-22T15:00:26.969Z,7.47
2019-04-22T15:02:57.547Z,9.23
2019-04-22T15:19:17.889Z,8.03
2019-04-22T15:21:47.761Z,7.37
2019-04-22T15:24:25.112Z,6.13
2019-04-22T15:26:58.588Z,5.97
2019-04-22T15:29:29.602Z,7.47
2019-04-22T15:31:59.979Z,7.30
2019-04-22T15:34:30.544Z,5.97
2019-04-22T15:37:02.160Z,6.00
2019-04-22T15:39:32.101Z,6.07
2019-04-22T15:42:11.765Z,6.40
2019-04-22T15:44:33.847Z,6.10
2019-04-22T15:47:04.837Z,6.53
2019-04-22T15:49:36.031Z,5.63
2019-04-22T15:52:07.794Z,5.80
2019-04-22T15:54:37.765Z,6.62
2019-04-22T15:57:08.915Z,7.30
2019-04-22T15:59:54.131Z,12.87
2019-04-22T16:02:10.494Z,7.23
2019-04-22T16:04:41.754Z,6.00
2019-04-22T16:07:12.807Z,6.33
2019-04-22T16:09:43.538Z,6.80
2019-04-22T16:12:22.696Z,5.50
2019-04-22T16:14:50.613Z,6.63
2019-04-22T16:17:16.981Z,7.73
2019-04-22T16:19:46.998Z,5.60
2019-04-22T16:22:19.732Z,5.03
2019-04-22T16:25:07.034Z,5.50
2019-04-22T16:27:38.414Z,5.33
2019-04-22T16:30:09.607Z,6.47
2019-04-22T16:32:41.375Z,4.60
2019-04-22T16:35:12.731Z,4.67
2019-04-22T16:37:42.930Z,4.93
2019-04-22T16:40:14.580Z,6.30
2019-04-22T16:42:51.490Z,5.83
2019-04-22T16:45:15.910Z,5.20
2019-04-22T16:47:45.928Z,5.83
2019-04-22T16:50:16.012Z,6.03
2019-04-22T16:52:46.269Z,6.43
2019-04-22T16:55:16.974Z,5.80
2019-04-22T16:57:48.268Z,6.93
2019-04-22T17:00:20.542Z,6.07
2019-04-22T17:03:10.823Z,7.00
2019-04-22T17:05:59.286Z,6.37
2019-04-22T17:08:30.617Z,7.43
2019-04-22T17:11:01.844Z,6.10
2019-04-22T17:13:33.978Z,5.87
2019-04-22T17:16:04.773Z,5.53
2019-04-22T17:18:35.190Z,6.30
2019-04-22T17:21:08.458Z,6.07
2019-04-22T17:23:37.993Z,6.17
2019-04-22T17:26:08.416Z,7.03
2019-04-22T17:28:39.533Z,4.90
2019-04-22T17:31:10.729Z,5.20
2019-04-22T17:33:41.171Z,5.73
2019-04-22T17:36:11.979Z,5.77
2019-04-22T17:38:51.979Z,5.87
2019-04-22T17:41:24.770Z,5.87
2019-04-22T17:44:15.296Z,6.87
2019-04-22T17:46:41.723Z,8.67
2019-04-22T17:49:33.982Z,7.50
2019-04-22T17:52:17.172Z,6.97
2019-04-22T17:54:51.898Z,9.10
2019-04-22T17:58:43.563Z,7.70
2019-04-22T18:01:09.394Z,7.50
2019-04-22T18:03:29.066Z,6.83
2019-04-22T18:05:58.028Z,9.97
2019-04-22T18:08:40.272Z,4.97
2019-04-22T18:11:23.851Z,4.80
2019-04-22T18:13:55.263Z,4.63
2019-04-22T18:16:18.154Z,4.67
2019-04-22T18:18:50.730Z,4.27
2019-04-22T18:21:13.329Z,6.30
2019-04-22T18:23:46.081Z,5.53
2019-04-22T18:26:20.473Z,4.57
2019-04-22T18:28:55.954Z,5.07
2019-04-22T18:31:17.484Z,5.10
2019-04-22T18:33:51.599Z,5.43
2019-04-22T18:36:22.837Z,5.60
2019-04-22T18:39:04.530Z,6.57
2019-04-22T18:41:29.911Z,5.63
2019-04-22T18:44:04.327Z,4.80
2019-04-22T18:46:34.385Z,5.80
2019-04-22T18:49:08.362Z,5.43
2019-04-22T18:51:42.390Z,6.20
2019-04-22T18:54:32.206Z,5.40
2019-04-22T18:57:07.105Z,5.87
2019-04-22T18:59:25.451Z,5.13
2019-04-22T19:02:02.586Z,6.13
2019-04-22T19:16:37.022Z,5.20
2019-04-22T19:29:57.664Z,6.03
2019-04-22T19:32:25.364Z,5.50
2019-04-22T19:34:57.474Z,5.10
2019-04-22T19:37:29.929Z,5.00
2019-04-22T19:40:09.608Z,5.33
2019-04-22T19:45:09.247Z,5.90
2019-04-22T19:47:56.594Z,5.30
2019-04-22T19:50:20.695Z,5.77
2019-04-22T19:52:39.994Z,5.07
2019-04-22T19:55:12.332Z,6.43
2019-04-22T19:57:43.143Z,7.13
2019-04-22T20:00:21.298Z,6.00
2019-04-22T20:03:16.628Z,5.87
2019-04-22T20:05:47.892Z,5.57
2019-04-22T20:08:21.334Z,5.70
2019-04-22T20:10:46.081Z,6.00
2019-04-22T20:13:28.794Z,5.97
2019-04-22T20:15:43.406Z,5.33
2019-04-22T20:20:58.501Z,4.63
2019-04-22T20:23:47.875Z,4.80
2019-04-22T20:26:23.531Z,5.60
2019-04-22T20:28:57.622Z,5.30
2019-04-22T20:31:30.092Z,4.80
2019-04-22T20:34:07.788Z,5.33
2019-04-22T20:36:52.296Z,5.50
2019-04-22T20:39:02.134Z,5.33
2019-04-22T20:41:33.844Z,5.30
2019-04-22T20:44:28.104Z,5.43
2019-04-22T20:46:56.132Z,5.90
2019-04-22T20:49:30.855Z,4.87
2019-04-22T20:52:06.380Z,4.67
2019-04-22T20:54:34.947Z,5.40
2019-04-22T20:57:03.842Z,5.37
2019-04-22T20:59:32.958Z,5.13
2019-04-22T21:02:03.695Z,5.07
2019-04-22T21:04:33.296Z,5.13
2019-04-22T21:07:05.085Z,4.83
2019-04-22T21:09:55.164Z,4.33
2019-04-22T21:13:07.003Z,4.00
2019-04-22T21:15:55.059Z,4.57
2019-04-22T21:18:13.583Z,5.10
2019-04-22T21:21:31.777Z,5.23
2019-04-22T21:23:56.958Z,4.43
2019-04-22T21:27:20.997Z,4.70
2019-04-22T21:29:40.300Z,4.80
2019-04-22T21:32:18.646Z,5.47
2019-04-22T21:34:52.674Z,4.30
2019-04-22T21:37:25.080Z,5.07
2019-04-22T21:39:56.648Z,4.77
2019-04-22T21:42:59.893Z,4.47
2019-04-22T21:46:11.752Z,4.23
2019-04-22T21:49:06.464Z,4.40
2019-04-22T21:52:24.941Z,4.43
2019-04-22T21:55:37.471Z,4.67
2019-04-22T21:58:38.114Z,3.90
2019-04-22T22:01:52.578Z,4.23
2019-04-22T22:04:32.206Z,4.40
2019-04-22T22:07:33.337Z,4.70
2019-04-22T22:21:47.405Z,4.53
2019-04-22T22:24:29.161Z,4.13
2019-04-22T22:27:18.796Z,5.20
2019-04-22T22:30:35.582Z,3.90
2019-04-22T22:32:51.435Z,4.00
2019-04-22T22:35:20.659Z,3.70
2019-04-22T22:37:50.218Z,3.37
2019-04-22T22:40:10.632Z,4.57
2019-04-22T22:42:38.776Z,4.60
2019-04-22T22:45:19.875Z,3.60
2019-04-22T22:48:23.923Z,3.83
2019-04-22T22:50:52.131Z,3.97
2019-04-22T22:53:57.086Z,3.30
2019-04-22T22:56:45.064Z,4.80
2019-04-22T22:59:11.178Z,3.60
2019-04-22T23:04:57.922Z,4.50
2019-04-22T23:07:44.297Z,3.77
2019-04-22T23:10:25.054Z,4.40
2019-04-22T23:13:08.116Z,3.93
2019-04-22T23:15:35.953Z,3.63
2019-04-22T23:17:51.862Z,4.30
2019-04-22T23:20:38.241Z,3.73
2019-04-22T23:23:44.919Z,3.67
2019-04-22T23:26:40.382Z,3.90
2019-04-22T23:29:18.308Z,3.60
2019-04-22T23:31:48.337Z,3.60
2019-04-22T23:34:39.348Z,3.60
2019-04-22T23:40:29.683Z,4.03
2019-04-22T23:43:03.903Z,4.43
2019-04-22T23:45:38.402Z,3.77
2019-04-22T23:48:00.928Z,4.23
2019-04-22T23:50:37.819Z,5.53
2019-04-22T23:53:42.365Z,3.83
2019-04-22T23:56:00.501Z,3.97
2019-04-22T23:58:47.095Z,3.67
